Weather observations for the past three days for
Poplar Bluff, Poplar Bluff Municipal Airport
Metric (Imperial)
Date Time (cdt) Wind (kph) Vis. (km) Weather Sky Cond. Temperature (ºC) Relative Humidity Wind Chill (°C) Heat Index (°C) Pressure Precipitation (cm)
Air Dwpt 6 hour altimeter (cm) sea level (mb) 1 hr 3 hr 6 hr
Max. Min.
02 11:53 NW 17 G 31 16.09 Mostly Cloudy BKN070 BKN085 17.2 3.3 40% 76.38 1018.2
02 10:53 NW 15 16.09 Fair CLR 16.7 4.4 44% 76.38 1018.2
02 09:53 W 11 16.09 Fair CLR 13.9 5.6 58% 76.38 1018.2
02 08:53 Calm 16.09 Overcast OVC100 11.7 6.1 69% 76.38 1018.2
02 07:53 Calm 16.09 Overcast OVC100 8.3 5 80% 76.35 1018.1
02 06:53 NW 6 16.09 Mostly Cloudy BKN100 6.1 5 8.9 5.6 93% 76.35 1017.8
02 05:53 Calm 16.09 Fair CLR 6.1 5 93% 76.28 1017.0
02 04:53 Calm 16.09 Fair CLR 6.1 5.6 97% 76.28 1016.9
02 03:53 Calm 16.09 Fair CLR 7.2 6.1 93% 76.25 1016.7
02 02:53 Calm 16.09 Fair CLR 7.8 7.2 96% 76.28 1016.9
02 01:53 Calm 16.09 Fair CLR 8.3 6.7 90% 76.3 1017.4
02 00:53 Calm 16.09 Fair CLR 8.9 6.7 17.8 8.9 86% 76.33 1017.8
01 23:53 Calm 16.09 Fair CLR 10 8.3 89% 76.3 1017.4
01 22:53 NW 6 16.09 Fair CLR 10 8.9 93% 76.33 1017.5
01 21:53 Calm 16.09 Fair CLR 12.2 5.6 64% 76.35 1017.9
01 20:53 E 6 16.09 Mostly Cloudy BKN090 13.9 5 55% 76.33 1017.7
01 19:53 E 7 16.09 A Few Clouds FEW090 15 4.4 49% 76.23 1016.3
01 18:53 NE 9 16.09 Fair CLR 17.8 1.7 19.4 16.7 34% 76.15 1015.3
01 17:53 N 15 16.09 Fair CLR 18.9 1.7 32% 76.15 1015.3
01 16:53 N 20 G 31 16.09 Fair CLR 18.9 0 28% 76.1 1014.4
01 15:53 N 11 16.09 Fair CLR 18.9 -1.1 26% 76.17 1015.6
01 14:53 Vrbl 11 16.09 Fair CLR 18.3 0 29% 76.28 1016.9
01 13:53 NE 11 16.09 Fair CLR 18.3 -1.1 27% 76.35 1017.8
01 12:53 E 15 16.09 Fair CLR 17.2 1.1 17.2 10 34% 76.35 1017.9
01 11:53 NE 13 16.09 Fair CLR 16.1 0 34% 76.4 1018.4
01 10:53 NE 15 16.09 Fair CLR 15.6 0 35% 76.43 1019.0
01 09:53 N 20 G 33 16.09 Fair CLR 14.4 1.1 41% 76.4 1018.6
01 08:53 N 20 16.09 Fair CLR 13.3 3.3 51% 76.38 1018.1
01 07:53 N 17 G 30 16.09 Fair CLR 12.2 5.6 64% 76.35 1018.0
01 06:53 NW 6 16.09 Fair CLR 10 7.8 13.3 8.3 86% 76.33 1017.6
01 05:53 N 6 16.09 Fair CLR 8.3 7.2 93% 76.25 1016.6
01 04:53 N 7 16.09 Fair CLR 9.4 7.2 86% 9 76.23 1016.2
01 03:53 NW 13 16.09 Mostly Cloudy BKN110 11.1 6.7 75% 76.23 1016.3
01 02:53 NW 13 16.09 Partly Cloudy SCT120 11.1 6.1 72% 76.23 1016.1
01 01:53 W 7 16.09 Fair CLR 12.8 5 59% 76.2 1015.7
01 00:53 W 9 12.87 Mostly Cloudy BKN110 13.3 6.7 17.2 13.3 65% 76.23 1016.3
30 23:53 Calm 16.09 Mostly Cloudy BKN120 13.9 7.8 67% 76.23 1016.1
30 22:53 W 7 9.66 A Few Clouds with Haze FEW120 13.9 8.9 72% 76.23 1016.2
30 21:53 Calm 16.09 Mostly Cloudy BKN110 14.4 10.6 78% 76.23 1016.1
30 20:53 S 7 12.87 Fair CLR 15 7.2 60% 76.2 1015.9
30 19:53 S 7 16.09 Overcast OVC120 16.1 6.7 54% 76.15 1015.4
30 18:53 Calm 16.09 A Few Clouds FEW120 17.2 5.6 18.9 16.7 47% 76.15 1015.2
30 17:53 SE 6 16.09 Fair CLR 17.8 2.8 37% 76.15 1015.3
30 16:53 Calm 16.09 Fair CLR 18.3 2.2 34% 76.17 1015.6
30 15:53 S 7 16.09 Fair CLR 18.3 2.8 36% 76.2 1016.1
30 14:53 E 13 16.09 Fair CLR 18.3 2.2 34% 76.3 1017.1
30 13:53 Vrbl 7 16.09 Fair CLR 17.2 1.7 35% 76.33 1017.6
30 12:53 Vrbl 11 16.09 Fair CLR 17.2 3.3 17.2 8.3 40% 76.38 1018.2
30 11:53 NE 15 16.09 Fair CLR 16.1 3.3 43% 76.43 1018.7
30 10:53 NE 15 16.09 Fair CLR 15 2.8 44% 76.45 1019.2
30 09:53 NE 17 16.09 Fair CLR 13.9 5 55% 76.43 1018.7
30 08:53 NE 13 16.09 Fair CLR 12.8 5.6 62% 76.45 1019.0
30 07:53 NE 7 16.09 Fair CLR 11.1 5.6 69% 76.43 1018.8
30 06:53 N 7 16.09 Fair CLR 8.3 6.1 12.8 7.2 86% 7 76.4 1018.7
30 05:53 Calm 16.09 Fair CLR 7.8 5.6 86% 76.35 1017.9
30 04:53 NW 6 16.09 Fair CLR 8.9 5.6 80% 76.35 1017.7
30 03:53 N 9 16.09 Fair CLR 9.4 6.1 80% 8 76.33 1017.4
30 02:53 N 11 16.09 Fair CLR 10.6 6.1 74% 76.3 1017.2
30 01:53 N 11 16.09 Fair CLR 10.6 7.2 80% 76.35 1017.8
30 00:53 NE 11 16.09 Fair CLR 12.8 6.1 18.3 12.8 64% 76.33 1017.6
29 23:53 NE 7 16.09 Fair CLR 13.9 6.7 62% 76.33 1017.4
29 22:53 N 15 16.09 Fair CLR 15 6.7 58% 76.28 1016.7
29 21:53 N 22 16.09 Fair CLR 16.1 6.7 54% 76.23 1016.3
29 20:53 N 13 16.09 Fair CLR 16.1 7.8 58% 76.2 1015.7
29 19:53 N 13 16.09 Fair CLR 17.2 7.8 54% 76.15 1015.1
29 18:53 N 17 16.09 A Few Clouds FEW120 18.3 7.8 21.7 18.3 51% 76.07 1014.1
29 17:53 N 19 16.09 Fair CLR 19.4 8.9 51% 76.07 1014.0
29 16:53 N 15 16.09 Fair CLR 21.1 8.3 44% 76.05 1013.7
29 15:53 N 19 16.09 Partly Cloudy SCT055 21.7 10 47% 76.12 1014.5
29 14:53 N 19 G 31 16.09 Partly Cloudy SCT050 20.6 10 51% 76.15 1014.8
29 13:53 NW 20 G 31 16.09 Fair CLR 20 9.4 51% 76.15 1015.0
29 12:53 N 22 16.09 Fair CLR 19.4 10 19.4 14.4 55% 76.17 1015.5
Date Time (cdt) Wind (kph) Vis. (km) Weather Sky Cond. Air Dwpt Max. Min. Relative Humidity Wind Chill (°C) Heat Index (°C) altimeter (cm) sea level (mb) 1 hr 3 hr 6 hr
6 hour
Temperature (ºC) Pressure Precipitation (cm)